sensor_id;sensor_type;location;lat;lon;timestamp;pressure;altitude;pressure_sealevel;temperature;humidity
32733;BME280;11867;51.198;11.966;2022-08-11T00:02:02;101228.19;;;17.26;68.80
32733;BME280;11867;51.198;11.966;2022-08-11T00:07:15;101233.25;;;17.19;68.82
32733;BME280;11867;51.198;11.966;2022-08-11T00:12:19;101229.19;;;16.84;70.35
32733;BME280;11867;51.198;11.966;2022-08-11T00:17:26;101230.34;;;16.97;69.67
32733;BME280;11867;51.198;11.966;2022-08-11T00:22:29;101227.56;;;17.71;67.14
32733;BME280;11867;51.198;11.966;2022-08-11T00:27:36;101232.78;;;17.72;67.41
32733;BME280;11867;51.198;11.966;2022-08-11T00:32:40;101237.53;;;16.60;71.09
32733;BME280;11867;51.198;11.966;2022-08-11T00:37:47;101231.13;;;16.83;70.70
32733;BME280;11867;51.198;11.966;2022-08-11T00:43:00;101221.19;;;17.01;69.60
32733;BME280;11867;51.198;11.966;2022-08-11T00:48:19;101237.00;;;16.58;71.29
32733;BME280;11867;51.198;11.966;2022-08-11T00:53:45;101238.53;;;17.02;69.68
32733;BME280;11867;51.198;11.966;2022-08-11T00:59:20;101234.13;;;16.30;72.68
32733;BME280;11867;51.198;11.966;2022-08-11T01:05:05;101235.88;;;16.02;73.16
32733;BME280;11867;51.198;11.966;2022-08-11T01:10:37;101227.47;;;16.69;70.54
32733;BME280;11867;51.198;11.966;2022-08-11T01:16:13;101236.47;;;15.99;72.64
32733;BME280;11867;51.198;11.966;2022-08-11T01:22:15;101234.16;;;15.63;75.46
32733;BME280;11867;51.198;11.966;2022-08-11T01:27:39;101232.41;;;16.15;72.39
32733;BME280;11867;51.198;11.966;2022-08-11T01:38:50;101241.63;;;15.81;73.63
32733;BME280;11867;51.198;11.966;2022-08-11T01:44:15;101240.03;;;16.75;69.84
32733;BME280;11867;51.198;11.966;2022-08-11T01:49:43;101238.56;;;16.45;70.60
32733;BME280;11867;51.198;11.966;2022-08-11T01:55:17;101238.78;;;15.67;74.29
32733;BME280;11867;51.198;11.966;2022-08-11T02:00:26;101231.41;;;15.63;74.18
32733;BME280;11867;51.198;11.966;2022-08-11T02:05:46;101222.75;;;15.50;74.90
32733;BME280;11867;51.198;11.966;2022-08-11T02:11:04;101232.41;;;15.19;76.35
32733;BME280;11867;51.198;11.966;2022-08-11T02:16:39;101232.84;;;16.22;71.17
32733;BME280;11867;51.198;11.966;2022-08-11T02:21:53;101237.34;;;16.37;70.44
32733;BME280;11867;51.198;11.966;2022-08-11T02:27:20;101232.09;;;15.98;72.73
32733;BME280;11867;51.198;11.966;2022-08-11T02:32:28;101225.44;;;15.02;76.31
32733;BME280;11867;51.198;11.966;2022-08-11T02:38:01;101221.63;;;15.51;74.37
32733;BME280;11867;51.198;11.966;2022-08-11T02:43:16;101231.13;;;16.07;71.86
32733;BME280;11867;51.198;11.966;2022-08-11T02:48:41;101227.91;;;15.57;73.43
32733;BME280;11867;51.198;11.966;2022-08-11T02:54:11;101232.94;;;15.74;72.85
32733;BME280;11867;51.198;11.966;2022-08-11T02:59:27;101233.22;;;16.53;69.18
32733;BME280;11867;51.198;11.966;2022-08-11T03:05:05;101238.34;;;16.22;70.34
32733;BME280;11867;51.198;11.966;2022-08-11T03:10:27;101238.50;;;15.16;74.46
32733;BME280;11867;51.198;11.966;2022-08-11T03:15:42;101237.13;;;15.66;73.44
32733;BME280;11867;51.198;11.966;2022-08-11T03:21:20;101240.09;;;16.37;69.77
32733;BME280;11867;51.198;11.966;2022-08-11T03:26:51;101238.16;;;16.19;70.10
32733;BME280;11867;51.198;11.966;2022-08-11T03:32:00;101242.53;;;16.39;69.13
32733;BME280;11867;51.198;11.966;2022-08-11T03:37:18;101249.53;;;15.10;74.63
32733;BME280;11867;51.198;11.966;2022-08-11T03:42:48;101249.41;;;14.91;76.52
32733;BME280;11867;51.198;11.966;2022-08-11T03:48:12;101246.19;;;15.91;71.99
32733;BME280;11867;51.198;11.966;2022-08-11T04:05:02;101252.75;;;15.71;71.77
32733;BME280;11867;51.198;11.966;2022-08-11T04:10:45;101256.84;;;15.98;70.69
32733;BME280;11867;51.198;11.966;2022-08-11T04:16:04;101257.22;;;16.10;73.39
32733;BME280;11867;51.198;11.966;2022-08-11T04:21:40;101252.81;;;16.52;69.17
32733;BME280;11867;51.198;11.966;2022-08-11T04:27:00;101256.50;;;16.61;69.46
32733;BME280;11867;51.198;11.966;2022-08-11T04:38:13;101254.41;;;16.91;67.90
32733;BME280;11867;51.198;11.966;2022-08-11T04:43:35;101261.94;;;16.85;69.68
32733;BME280;11867;51.198;11.966;2022-08-11T04:49:30;101263.03;;;16.65;70.90
32733;BME280;11867;51.198;11.966;2022-08-11T04:55:07;101259.84;;;16.77;69.66
32733;BME280;11867;51.198;11.966;2022-08-11T05:00:44;101249.03;;;17.60;66.19
32733;BME280;11867;51.198;11.966;2022-08-11T05:06:33;101259.03;;;17.70;67.08
32733;BME280;11867;51.198;11.966;2022-08-11T05:12:05;101262.38;;;17.39;70.10
32733;BME280;11867;51.198;11.966;2022-08-11T05:17:14;101259.13;;;17.65;69.25
32733;BME280;11867;51.198;11.966;2022-08-11T05:22:35;101262.31;;;16.79;71.84
32733;BME280;11867;51.198;11.966;2022-08-11T05:28:02;101274.75;;;16.95;70.92
32733;BME280;11867;51.198;11.966;2022-08-11T05:33:29;101270.97;;;17.05;70.37
32733;BME280;11867;51.198;11.966;2022-08-11T05:38:55;101264.31;;;17.52;68.70
32733;BME280;11867;51.198;11.966;2022-08-11T05:44:19;101268.25;;;17.65;68.43
32733;BME280;11867;51.198;11.966;2022-08-11T05:49:40;101264.66;;;17.04;70.82
32733;BME280;11867;51.198;11.966;2022-08-11T05:55:02;101268.47;;;17.22;70.66
32733;BME280;11867;51.198;11.966;2022-08-11T06:00:25;101265.38;;;18.12;66.43
32733;BME280;11867;51.198;11.966;2022-08-11T06:05:33;101267.06;;;18.58;65.49
32733;BME280;11867;51.198;11.966;2022-08-11T06:10:45;101267.13;;;19.03;64.43
32733;BME280;11867;51.198;11.966;2022-08-11T06:15:50;101275.50;;;18.89;64.90
32733;BME280;11867;51.198;11.966;2022-08-11T06:20:55;101280.81;;;19.08;63.94
32733;BME280;11867;51.198;11.966;2022-08-11T06:25:58;101285.22;;;19.09;62.61
32733;BME280;11867;51.198;11.966;2022-08-11T06:31:10;101284.75;;;19.16;64.68
32733;BME280;11867;51.198;11.966;2022-08-11T06:36:16;101291.28;;;19.20;64.76
32733;BME280;11867;51.198;11.966;2022-08-11T06:41:28;101287.09;;;19.85;62.09
32733;BME280;11867;51.198;11.966;2022-08-11T06:46:35;101282.38;;;19.94;60.82
32733;BME280;11867;51.198;11.966;2022-08-11T06:51:39;101290.75;;;20.21;60.81
32733;BME280;11867;51.198;11.966;2022-08-11T06:56:45;101286.19;;;20.16;60.79
32733;BME280;11867;51.198;11.966;2022-08-11T07:02:29;101288.16;;;20.42;59.23
32733;BME280;11867;51.198;11.966;2022-08-11T07:08:06;101286.06;;;20.47;59.98
32733;BME280;11867;51.198;11.966;2022-08-11T07:13:37;101290.13;;;21.02;57.35
32733;BME280;11867;51.198;11.966;2022-08-11T07:19:02;101286.81;;;21.35;56.03
32733;BME280;11867;51.198;11.966;2022-08-11T07:24:39;101284.03;;;21.35;56.68
32733;BME280;11867;51.198;11.966;2022-08-11T07:30:06;101282.28;;;21.77;55.67
32733;BME280;11867;51.198;11.966;2022-08-11T07:35:12;101272.72;;;21.58;55.65
32733;BME280;11867;51.198;11.966;2022-08-11T07:40:20;101275.78;;;22.33;53.37
32733;BME280;11867;51.198;11.966;2022-08-11T07:45:23;101274.53;;;22.43;54.52
32733;BME280;11867;51.198;11.966;2022-08-11T07:50:47;101277.59;;;22.71;53.32
32733;BME280;11867;51.198;11.966;2022-08-11T07:56:08;101281.19;;;22.29;55.45
32733;BME280;11867;51.198;11.966;2022-08-11T08:01:21;101280.22;;;22.67;53.83
32733;BME280;11867;51.198;11.966;2022-08-11T08:06:44;101272.50;;;23.40;53.03
32733;BME280;11867;51.198;11.966;2022-08-11T08:12:04;101268.13;;;23.51;51.62
32733;BME280;11867;51.198;11.966;2022-08-11T08:17:26;101268.25;;;23.79;50.88
32733;BME280;11867;51.198;11.966;2022-08-11T08:23:08;101262.44;;;24.21;47.80
32733;BME280;11867;51.198;11.966;2022-08-11T08:28:14;101259.47;;;24.42;48.27
32733;BME280;11867;51.198;11.966;2022-08-11T08:33:20;101261.66;;;24.49;48.02
32733;BME280;11867;51.198;11.966;2022-08-11T08:38:24;101249.13;;;24.43;48.24
32733;BME280;11867;51.198;11.966;2022-08-11T08:43:29;101253.84;;;24.67;47.20
32733;BME280;11867;51.198;11.966;2022-08-11T08:48:50;101248.59;;;25.22;47.76
32733;BME280;11867;51.198;11.966;2022-08-11T08:54:00;101244.28;;;25.40;45.72
32733;BME280;11867;51.198;11.966;2022-08-11T08:59:05;101229.31;;;25.48;45.74
32733;BME280;11867;51.198;11.966;2022-08-11T09:04:08;101236.50;;;25.97;45.13
32733;BME280;11867;51.198;11.966;2022-08-11T09:09:19;101226.97;;;25.82;45.48
32733;BME280;11867;51.198;11.966;2022-08-11T09:14:24;101225.81;;;26.38;44.43
32733;BME280;11867;51.198;11.966;2022-08-11T09:19:53;101220.94;;;25.48;44.63
32733;BME280;11867;51.198;11.966;2022-08-11T09:25:00;101222.63;;;25.69;44.99
32733;BME280;11867;51.198;11.966;2022-08-11T09:30:22;101208.66;;;26.20;45.54
32733;BME280;11867;51.198;11.966;2022-08-11T09:35:27;101209.78;;;26.54;44.53
32733;BME280;11867;51.198;11.966;2022-08-11T09:40:32;101201.47;;;26.19;43.34
32733;BME280;11867;51.198;11.966;2022-08-11T09:45:36;101193.38;;;26.95;42.73
32733;BME280;11867;51.198;11.966;2022-08-11T09:50:40;101185.03;;;27.22;41.64
32733;BME280;11867;51.198;11.966;2022-08-11T09:55:45;101186.78;;;27.27;42.28
32733;BME280;11867;51.198;11.966;2022-08-11T10:00:50;101188.53;;;26.69;42.61
32733;BME280;11867;51.198;11.966;2022-08-11T10:05:55;101181.38;;;26.95;42.28
32733;BME280;11867;51.198;11.966;2022-08-11T10:11:22;101187.75;;;27.65;42.64
32733;BME280;11867;51.198;11.966;2022-08-11T10:16:28;101182.44;;;28.09;40.51
32733;BME280;11867;51.198;11.966;2022-08-11T10:21:36;101164.38;;;28.41;40.42
32733;BME280;11867;51.198;11.966;2022-08-11T10:26:43;101169.25;;;28.47;40.11
32733;BME280;11867;51.198;11.966;2022-08-11T10:31:56;101155.28;;;29.36;37.64
32733;BME280;11867;51.198;11.966;2022-08-11T10:37:19;101151.56;;;30.90;35.82
32733;BME280;11867;51.198;11.966;2022-08-11T10:42:24;101154.16;;;32.96;34.21
32733;BME280;11867;51.198;11.966;2022-08-11T10:47:58;101140.59;;;33.67;32.82
32733;BME280;11867;51.198;11.966;2022-08-11T10:53:01;101137.22;;;32.93;32.60
32733;BME280;11867;51.198;11.966;2022-08-11T10:58:24;101136.66;;;31.54;35.30
32733;BME280;11867;51.198;11.966;2022-08-11T11:03:45;101137.44;;;34.85;30.75
32733;BME280;11867;51.198;11.966;2022-08-11T11:08:48;101128.66;;;32.48;33.23
32733;BME280;11867;51.198;11.966;2022-08-11T11:14:00;101124.97;;;34.24;32.26
32733;BME280;11867;51.198;11.966;2022-08-11T11:19:27;101118.75;;;32.18;35.43
32733;BME280;11867;51.198;11.966;2022-08-11T11:24:37;101113.56;;;31.98;34.48
32733;BME280;11867;51.198;11.966;2022-08-11T11:29:52;101117.38;;;32.48;34.09
32733;BME280;11867;51.198;11.966;2022-08-11T11:35:29;101094.84;;;32.96;32.17
32733;BME280;11867;51.198;11.966;2022-08-11T11:40:37;101103.19;;;33.14;31.97
32733;BME280;11867;51.198;11.966;2022-08-11T11:45:43;101091.31;;;34.03;32.08
32733;BME280;11867;51.198;11.966;2022-08-11T11:50:45;101091.03;;;32.72;33.38
32733;BME280;11867;51.198;11.966;2022-08-11T11:55:50;101089.81;;;32.70;32.73
32733;BME280;11867;51.198;11.966;2022-08-11T12:00:55;101088.31;;;31.63;33.77
32733;BME280;11867;51.198;11.966;2022-08-11T12:06:16;101080.44;;;32.21;33.83
32733;BME280;11867;51.198;11.966;2022-08-11T12:11:21;101075.22;;;34.27;30.96
32733;BME280;11867;51.198;11.966;2022-08-11T12:16:46;101077.38;;;33.05;33.18
32733;BME280;11867;51.198;11.966;2022-08-11T12:21:50;101069.13;;;32.28;33.13
32733;BME280;11867;51.198;11.966;2022-08-11T12:27:11;101055.66;;;33.40;32.47
32733;BME280;11867;51.198;11.966;2022-08-11T12:32:30;101045.00;;;32.16;32.29
32733;BME280;11867;51.198;11.966;2022-08-11T12:37:35;101041.53;;;32.57;33.69
32733;BME280;11867;51.198;11.966;2022-08-11T12:42:39;101042.69;;;32.63;31.94
32733;BME280;11867;51.198;11.966;2022-08-11T12:48:07;101034.56;;;32.13;32.91
32733;BME280;11867;51.198;11.966;2022-08-11T12:53:52;101034.53;;;30.71;35.66
32733;BME280;11867;51.198;11.966;2022-08-11T12:58:56;101021.25;;;31.00;33.39
32733;BME280;11867;51.198;11.966;2022-08-11T13:04:19;101025.19;;;31.35;34.59
32733;BME280;11867;51.198;11.966;2022-08-11T13:09:40;101014.81;;;30.96;34.89
32733;BME280;11867;51.198;11.966;2022-08-11T13:14:44;101018.78;;;31.20;34.53
32733;BME280;11867;51.198;11.966;2022-08-11T13:19:48;101008.78;;;30.94;35.29
32733;BME280;11867;51.198;11.966;2022-08-11T13:24:53;101012.31;;;31.45;33.53
32733;BME280;11867;51.198;11.966;2022-08-11T13:29:57;101000.53;;;31.64;34.03
32733;BME280;11867;51.198;11.966;2022-08-11T13:35:16;100991.09;;;30.83;34.84
32733;BME280;11867;51.198;11.966;2022-08-11T13:40:20;100982.19;;;31.20;35.50
32733;BME280;11867;51.198;11.966;2022-08-11T13:45:45;100976.63;;;30.95;34.93
32733;BME280;11867;51.198;11.966;2022-08-11T13:50:50;100975.44;;;30.31;36.73
32733;BME280;11867;51.198;11.966;2022-08-11T13:56:10;100959.66;;;31.16;34.68
32733;BME280;11867;51.198;11.966;2022-08-11T14:01:13;100960.13;;;30.14;36.12
32733;BME280;11867;51.198;11.966;2022-08-11T14:06:40;100956.94;;;30.55;34.30
32733;BME280;11867;51.198;11.966;2022-08-11T14:11:46;100950.50;;;30.41;34.11
32733;BME280;11867;51.198;11.966;2022-08-11T14:17:24;100953.25;;;30.98;33.31
32733;BME280;11867;51.198;11.966;2022-08-11T14:22:49;100946.81;;;31.05;33.43
32733;BME280;11867;51.198;11.966;2022-08-11T14:27:53;100936.38;;;31.86;32.86
32733;BME280;11867;51.198;11.966;2022-08-11T14:33:17;100922.50;;;32.17;32.65
32733;BME280;11867;51.198;11.966;2022-08-11T14:38:22;100925.47;;;31.92;32.83
32733;BME280;11867;51.198;11.966;2022-08-11T14:43:25;100925.59;;;32.75;31.90
32733;BME280;11867;51.198;11.966;2022-08-11T14:49:06;100931.34;;;32.19;32.22
32733;BME280;11867;51.198;11.966;2022-08-11T14:54:11;100929.19;;;32.37;32.14
32733;BME280;11867;51.198;11.966;2022-08-11T14:59:31;100916.91;;;32.59;31.48
32733;BME280;11867;51.198;11.966;2022-08-11T15:04:34;100918.94;;;32.58;31.59
32733;BME280;11867;51.198;11.966;2022-08-11T15:09:40;100909.28;;;31.36;33.24
32733;BME280;11867;51.198;11.966;2022-08-11T15:15:05;100906.47;;;32.07;33.63
32733;BME280;11867;51.198;11.966;2022-08-11T15:20:28;100904.91;;;31.91;33.22
32733;BME280;11867;51.198;11.966;2022-08-11T15:25:57;100895.41;;;30.68;34.32
32733;BME280;11867;51.198;11.966;2022-08-11T15:31:02;100892.63;;;30.54;33.56
32733;BME280;11867;51.198;11.966;2022-08-11T15:36:29;100886.97;;;29.82;34.41
32733;BME280;11867;51.198;11.966;2022-08-11T15:41:59;100885.41;;;30.17;34.06
32733;BME280;11867;51.198;11.966;2022-08-11T15:47:28;100886.22;;;30.35;33.91
32733;BME280;11867;51.198;11.966;2022-08-11T15:52:45;100882.03;;;31.08;33.64
32733;BME280;11867;51.198;11.966;2022-08-11T15:57:52;100874.94;;;30.25;34.93
32733;BME280;11867;51.198;11.966;2022-08-11T16:03:15;100873.34;;;30.42;34.54
32733;BME280;11867;51.198;11.966;2022-08-11T16:08:57;100870.53;;;29.88;35.13
32733;BME280;11867;51.198;11.966;2022-08-11T16:14:21;100870.81;;;29.36;35.91
32733;BME280;11867;51.198;11.966;2022-08-11T16:19:45;100870.13;;;30.00;34.71
32733;BME280;11867;51.198;11.966;2022-08-11T16:24:50;100859.28;;;30.16;34.49
32733;BME280;11867;51.198;11.966;2022-08-11T16:30:14;100853.94;;;30.90;33.92
32733;BME280;11867;51.198;11.966;2022-08-11T16:35:17;100859.28;;;29.88;35.04
32733;BME280;11867;51.198;11.966;2022-08-11T16:40:39;100848.84;;;29.74;35.67
32733;BME280;11867;51.198;11.966;2022-08-11T16:45:44;100852.00;;;29.65;35.91
32733;BME280;11867;51.198;11.966;2022-08-11T16:51:06;100849.66;;;29.82;36.25
32733;BME280;11867;51.198;11.966;2022-08-11T16:56:11;100845.25;;;29.91;35.86
32733;BME280;11867;51.198;11.966;2022-08-11T17:01:18;100850.44;;;29.96;35.41
32733;BME280;11867;51.198;11.966;2022-08-11T17:06:22;100851.19;;;29.50;35.78
32733;BME280;11867;51.198;11.966;2022-08-11T17:11:45;100853.13;;;29.25;36.51
32733;BME280;11867;51.198;11.966;2022-08-11T17:17:11;100845.78;;;28.98;36.76
32733;BME280;11867;51.198;11.966;2022-08-11T17:22:17;100841.06;;;29.21;36.78
32733;BME280;11867;51.198;11.966;2022-08-11T17:27:37;100841.47;;;29.15;36.92
32733;BME280;11867;51.198;11.966;2022-08-11T17:32:48;100844.16;;;28.94;36.83
32733;BME280;11867;51.198;11.966;2022-08-11T17:38:23;100847.78;;;28.98;36.65
32733;BME280;11867;51.198;11.966;2022-08-11T17:43:26;100845.53;;;28.52;37.89
32733;BME280;11867;51.198;11.966;2022-08-11T17:48:49;100854.91;;;28.18;37.95
32733;BME280;11867;51.198;11.966;2022-08-11T17:53:53;100852.75;;;27.97;38.56
32733;BME280;11867;51.198;11.966;2022-08-11T17:59:25;100843.81;;;27.85;38.15
32733;BME280;11867;51.198;11.966;2022-08-11T18:04:51;100849.97;;;27.60;38.99
32733;BME280;11867;51.198;11.966;2022-08-11T18:09:55;100862.63;;;27.47;39.45
32733;BME280;11867;51.198;11.966;2022-08-11T18:15:17;100865.41;;;27.43;39.84
32733;BME280;11867;51.198;11.966;2022-08-11T18:20:51;100865.31;;;27.36;40.09
32733;BME280;11867;51.198;11.966;2022-08-11T18:26:14;100875.63;;;27.28;40.73
32733;BME280;11867;51.198;11.966;2022-08-11T18:31:41;100882.56;;;26.77;40.72
32733;BME280;11867;51.198;11.966;2022-08-11T18:37:06;100880.03;;;26.46;41.02
32733;BME280;11867;51.198;11.966;2022-08-11T18:42:30;100882.38;;;25.90;42.31
32733;BME280;11867;51.198;11.966;2022-08-11T18:47:56;100883.44;;;25.43;43.09
32733;BME280;11867;51.198;11.966;2022-08-11T18:53:21;100882.41;;;25.12;43.95
32733;BME280;11867;51.198;11.966;2022-08-11T18:58:46;100893.06;;;24.71;44.19
32733;BME280;11867;51.198;11.966;2022-08-11T19:04:07;100889.94;;;24.92;43.51
32733;BME280;11867;51.198;11.966;2022-08-11T19:09:34;100897.75;;;24.67;43.95
32733;BME280;11867;51.198;11.966;2022-08-11T19:14:57;100910.28;;;24.26;44.77
32733;BME280;11867;51.198;11.966;2022-08-11T19:20:20;100904.88;;;24.49;44.07
32733;BME280;11867;51.198;11.966;2022-08-11T19:25:42;100906.44;;;24.14;45.06
32733;BME280;11867;51.198;11.966;2022-08-11T19:31:04;100912.28;;;23.65;46.19
32733;BME280;11867;51.198;11.966;2022-08-11T19:36:27;100913.34;;;23.32;47.18
32733;BME280;11867;51.198;11.966;2022-08-11T19:41:49;100913.72;;;23.19;48.26
32733;BME280;11867;51.198;11.966;2022-08-11T19:47:10;100918.41;;;23.02;48.71
32733;BME280;11867;51.198;11.966;2022-08-11T19:52:32;100913.16;;;23.13;48.16
32733;BME280;11867;51.198;11.966;2022-08-11T19:57:55;100915.06;;;22.84;48.77
32733;BME280;11867;51.198;11.966;2022-08-11T20:03:16;100915.88;;;22.72;48.89
32733;BME280;11867;51.198;11.966;2022-08-11T20:08:40;100921.00;;;22.46;49.69
32733;BME280;11867;51.198;11.966;2022-08-11T20:14:02;100915.56;;;22.37;49.71
32733;BME280;11867;51.198;11.966;2022-08-11T20:19:24;100918.88;;;22.18;50.55
32733;BME280;11867;51.198;11.966;2022-08-11T20:24:56;100928.53;;;21.87;50.89
32733;BME280;11867;51.198;11.966;2022-08-11T20:30:17;100917.03;;;21.64;51.26
32733;BME280;11867;51.198;11.966;2022-08-11T20:35:38;100916.03;;;21.81;51.52
32733;BME280;11867;51.198;11.966;2022-08-11T20:40:59;100907.50;;;21.32;52.61
32733;BME280;11867;51.198;11.966;2022-08-11T20:46:22;100922.63;;;21.89;51.96
32733;BME280;11867;51.198;11.966;2022-08-11T20:51:44;100918.81;;;22.51;50.09
32733;BME280;11867;51.198;11.966;2022-08-11T20:57:07;100925.59;;;21.71;51.81
32733;BME280;11867;51.198;11.966;2022-08-11T21:02:50;100929.22;;;20.88;53.62
32733;BME280;11867;51.198;11.966;2022-08-11T21:08:13;100933.31;;;20.82;53.53
32733;BME280;11867;51.198;11.966;2022-08-11T21:13:38;100938.97;;;20.55;54.19
32733;BME280;11867;51.198;11.966;2022-08-11T21:19:03;100953.44;;;20.23;54.94
32733;BME280;11867;51.198;11.966;2022-08-11T21:24:46;100961.59;;;20.19;55.84
32733;BME280;11867;51.198;11.966;2022-08-11T21:30:08;100975.38;;;20.36;55.13
32733;BME280;11867;51.198;11.966;2022-08-11T21:35:30;100967.41;;;20.35;55.18
32733;BME280;11867;51.198;11.966;2022-08-11T21:40:52;100973.88;;;19.92;56.88
32733;BME280;11867;51.198;11.966;2022-08-11T21:46:14;100977.97;;;19.68;57.22
32733;BME280;11867;51.198;11.966;2022-08-11T21:51:38;100972.94;;;19.62;57.57
32733;BME280;11867;51.198;11.966;2022-08-11T21:56:59;100980.06;;;19.54;57.88
32733;BME280;11867;51.198;11.966;2022-08-11T22:02:20;100977.47;;;19.23;58.26
32733;BME280;11867;51.198;11.966;2022-08-11T22:07:42;100979.09;;;19.24;59.07
32733;BME280;11867;51.198;11.966;2022-08-11T22:13:03;100968.47;;;18.91;59.75
32733;BME280;11867;51.198;11.966;2022-08-11T22:18:23;100966.56;;;19.52;58.54
32733;BME280;11867;51.198;11.966;2022-08-11T22:23:45;100962.63;;;19.88;56.07
32733;BME280;11867;51.198;11.966;2022-08-11T22:29:09;100973.22;;;19.17;58.59
32733;BME280;11867;51.198;11.966;2022-08-11T22:34:51;100980.47;;;18.86;59.53
32733;BME280;11867;51.198;11.966;2022-08-11T22:40:13;100970.78;;;18.66;60.13
32733;BME280;11867;51.198;11.966;2022-08-11T22:45:33;100976.94;;;18.54;59.72
32733;BME280;11867;51.198;11.966;2022-08-11T22:50:54;100977.38;;;18.48;60.58
32733;BME280;11867;51.198;11.966;2022-08-11T22:56:16;100972.94;;;18.29;60.56
32733;BME280;11867;51.198;11.966;2022-08-11T23:01:37;100977.66;;;18.78;59.26
32733;BME280;11867;51.198;11.966;2022-08-11T23:06:59;100986.25;;;19.25;58.12
32733;BME280;11867;51.198;11.966;2022-08-11T23:12:42;100979.94;;;19.77;56.59
32733;BME280;11867;51.198;11.966;2022-08-11T23:18:03;100981.72;;;19.64;56.24
32733;BME280;11867;51.198;11.966;2022-08-11T23:23:27;100977.31;;;19.54;56.71
32733;BME280;11867;51.198;11.966;2022-08-11T23:28:49;100987.19;;;19.20;57.92
32733;BME280;11867;51.198;11.966;2022-08-11T23:34:14;100977.72;;;18.95;58.90
32733;BME280;11867;51.198;11.966;2022-08-11T23:39:54;100973.53;;;19.06;58.33
32733;BME280;11867;51.198;11.966;2022-08-11T23:45:16;100979.41;;;17.80;61.97
32733;BME280;11867;51.198;11.966;2022-08-11T23:50:37;100978.00;;;18.36;60.92
32733;BME280;11867;51.198;11.966;2022-08-11T23:55:58;100975.31;;;17.32;63.66
